createdAt,value
2023-02-25T00:00:25.936Z,2592.00
2023-02-25T00:01:25.895Z,2576.00
2023-02-25T00:02:25.959Z,2572.00
2023-02-25T00:03:25.892Z,2567.00
2023-02-25T00:04:25.875Z,2568.00
2023-02-25T00:05:25.834Z,2578.00
2023-02-25T00:06:25.791Z,2568.00
2023-02-25T00:07:25.789Z,2549.00
2023-02-25T00:08:25.777Z,2588.00
2023-02-25T00:09:25.767Z,2586.00
2023-02-25T00:10:25.787Z,2581.00
2023-02-25T00:11:25.716Z,2566.00
2023-02-25T00:12:25.667Z,2573.00
2023-02-25T00:13:25.656Z,2562.00
2023-02-25T00:14:25.677Z,2582.00
2023-02-25T00:15:25.625Z,2574.00
2023-02-25T00:16:26.059Z,2570.00
2023-02-25T00:17:25.553Z,2561.00
2023-02-25T00:18:25.563Z,2571.00
2023-02-25T00:19:25.525Z,2552.00
2023-02-25T00:20:25.534Z,2520.00
2023-02-25T00:21:25.475Z,2544.00
2023-02-25T00:22:25.468Z,2534.00
2023-02-25T00:23:25.413Z,2548.00
2023-02-25T00:24:25.404Z,2559.00
2023-02-25T00:25:25.395Z,2559.00
2023-02-25T00:26:25.485Z,2561.00
2023-02-25T00:27:25.310Z,2542.00
2023-02-25T00:28:25.294Z,2566.00
2023-02-25T00:29:25.271Z,2556.00
2023-02-25T00:30:25.252Z,2564.00
2023-02-25T00:31:25.353Z,2565.00
2023-02-25T00:32:25.465Z,2558.00
2023-02-25T00:33:25.190Z,2531.00
2023-02-25T00:34:25.152Z,2562.00
2023-02-25T00:35:25.153Z,2542.00
2023-02-25T00:36:25.385Z,2549.00
2023-02-25T00:37:25.089Z,2530.00
2023-02-25T00:38:25.064Z,2538.00
2023-02-25T00:39:25.046Z,2533.00
2023-02-25T00:40:25.031Z,2548.00
2023-02-25T00:41:25.016Z,2556.00
2023-02-25T00:42:25.018Z,2545.00
2023-02-25T00:43:24.988Z,2556.00
2023-02-25T00:44:24.961Z,2540.00
2023-02-25T00:45:24.986Z,2535.00
2023-02-25T00:46:25.325Z,2536.00
2023-02-25T00:47:24.895Z,2522.00
2023-02-25T00:48:24.861Z,2545.00
2023-02-25T00:49:32.138Z,2538.00
2023-02-25T00:50:25.852Z,2538.00
2023-02-25T00:51:24.816Z,2524.00
2023-02-25T00:52:24.817Z,2536.00
2023-02-25T00:53:24.776Z,2533.00
2023-02-25T00:54:24.755Z,2527.00
2023-02-25T00:55:24.751Z,2549.00
2023-02-25T00:56:25.022Z,2511.00
2023-02-25T00:57:24.709Z,2549.00
2023-02-25T00:58:24.676Z,2526.00
2023-02-25T00:59:24.688Z,2521.00
2023-02-25T01:00:24.656Z,2522.00
2023-02-25T01:01:24.646Z,2526.00
2023-02-25T01:02:24.687Z,2531.00
2023-02-25T01:03:24.596Z,2540.00
2023-02-25T01:04:24.568Z,2537.00
2023-02-25T01:05:24.556Z,2543.00
2023-02-25T01:06:24.745Z,2529.00
2023-02-25T01:07:24.522Z,2536.00
2023-02-25T01:08:24.491Z,2541.00
2023-02-25T01:09:24.470Z,2529.00
2023-02-25T01:10:24.456Z,2524.00
2023-02-25T01:11:24.452Z,2539.00
2023-02-25T01:12:24.416Z,2507.00
2023-02-25T01:13:24.370Z,2501.00
2023-02-25T01:14:24.342Z,2525.00
2023-02-25T01:15:24.553Z,2515.00
2023-02-25T01:16:24.889Z,2537.00
2023-02-25T01:17:24.295Z,2495.00
2023-02-25T01:18:24.273Z,2533.00
2023-02-25T01:19:24.241Z,2521.00
2023-02-25T01:20:24.226Z,2524.00
2023-02-25T01:21:24.203Z,2520.00
2023-02-25T01:22:24.189Z,2513.00
2023-02-25T01:23:24.144Z,2508.00
2023-02-25T01:24:24.118Z,2520.00
2023-02-25T01:25:24.089Z,2500.00
2023-02-25T01:26:24.407Z,2516.00
2023-02-25T01:27:24.037Z,2492.00
2023-02-25T01:28:23.996Z,2476.00
2023-02-25T01:29:23.988Z,2478.00
2023-02-25T01:30:23.963Z,2482.00
2023-02-25T01:31:24.052Z,2486.00
2023-02-25T01:32:24.007Z,2493.00
2023-02-25T01:33:23.893Z,2494.00
2023-02-25T01:34:23.864Z,2515.00
2023-02-25T01:35:23.865Z,2516.00
2023-02-25T01:36:24.364Z,2511.00
2023-02-25T01:37:23.794Z,2514.00
2023-02-25T01:38:23.776Z,2489.00
2023-02-25T01:39:25.799Z,2524.00
2023-02-25T01:40:23.865Z,2497.00
2023-02-25T01:41:23.857Z,2528.00
2023-02-25T01:42:23.824Z,2504.00
2023-02-25T01:43:23.801Z,2500.00
2023-02-25T01:44:23.815Z,2511.00
2023-02-25T01:45:23.772Z,2491.00
2023-02-25T01:46:24.208Z,2515.00
2023-02-25T01:47:23.760Z,2493.00
2023-02-25T01:48:23.659Z,2460.00
2023-02-25T01:49:23.673Z,2501.00
2023-02-25T01:50:23.621Z,2502.00
2023-02-25T01:51:23.629Z,2494.00
2023-02-25T01:52:23.574Z,2475.00
2023-02-25T01:53:23.585Z,2475.00
2023-02-25T01:54:23.597Z,2487.00
2023-02-25T01:55:23.646Z,2461.00
2023-02-25T01:56:24.045Z,2505.00
2023-02-25T01:57:23.666Z,2466.00
2023-02-25T01:58:23.635Z,2490.00
2023-02-25T01:59:23.588Z,2496.00
2023-02-25T02:00:23.560Z,2494.00
2023-02-25T02:01:23.546Z,2469.00
2023-02-25T02:02:23.569Z,2454.00
2023-02-25T02:03:23.464Z,2494.00
2023-02-25T02:04:23.491Z,2477.00
2023-02-25T02:05:23.513Z,2478.00
2023-02-25T02:06:23.956Z,2470.00
2023-02-25T02:07:23.558Z,2470.00
2023-02-25T02:08:23.518Z,2465.00
2023-02-25T02:09:23.484Z,2453.00
2023-02-25T02:10:23.452Z,2465.00
2023-02-25T02:11:23.434Z,2458.00
2023-02-25T02:12:23.416Z,2468.00
2023-02-25T02:13:23.416Z,2478.00
2023-02-25T02:14:23.449Z,2442.00
2023-02-25T02:15:23.478Z,2457.00
2023-02-25T02:16:23.861Z,2477.00
2023-02-25T02:17:23.501Z,2449.00
2023-02-25T02:18:23.469Z,2458.00
2023-02-25T02:19:23.472Z,2472.00
2023-02-25T02:20:23.429Z,2476.00
2023-02-25T02:21:23.401Z,2462.00
2023-02-25T02:22:23.392Z,2468.00
2023-02-25T02:23:23.376Z,2457.00
2023-02-25T02:24:23.389Z,2470.00
2023-02-25T02:25:23.423Z,2459.00
2023-02-25T02:26:23.869Z,2459.00
2023-02-25T02:27:23.445Z,2460.00
2023-02-25T02:28:23.383Z,2460.00
2023-02-25T02:29:23.362Z,2450.00
2023-02-25T02:30:23.338Z,2430.00
2023-02-25T02:31:23.364Z,2475.00
2023-02-25T02:32:23.537Z,2464.00
2023-02-25T02:33:23.250Z,2439.00
2023-02-25T02:34:23.233Z,2448.00
2023-02-25T02:35:23.215Z,2443.00
2023-02-25T02:36:23.523Z,2439.00
2023-02-25T02:37:23.154Z,2435.00
2023-02-25T02:38:23.121Z,2453.00
2023-02-25T02:39:23.087Z,2442.00
2023-02-25T02:40:23.070Z,2433.00
2023-02-25T02:41:23.031Z,2380.00
2023-02-25T02:42:23.031Z,2359.00
2023-02-25T02:43:22.970Z,2190.00
2023-02-25T02:44:22.965Z,2010.00
2023-02-25T02:45:23.049Z,1889.00
2023-02-25T02:46:23.243Z,1819.00
2023-02-25T02:47:22.889Z,1730.00
2023-02-25T02:48:22.859Z,1649.00
2023-02-25T02:49:22.898Z,1593.00
2023-02-25T02:50:22.824Z,1517.00
2023-02-25T02:51:22.811Z,1412.00
2023-02-25T02:52:22.780Z,1313.00
2023-02-25T02:53:22.742Z,1252.00
2023-02-25T02:54:22.741Z,1177.00
2023-02-25T02:55:22.712Z,1115.00
2023-02-25T02:56:23.083Z,1081.00
2023-02-25T02:57:22.674Z,1023.00
2023-02-25T02:58:22.671Z,958.00
2023-02-25T02:59:22.734Z,911.00
2023-02-25T03:00:22.603Z,863.00
2023-02-25T03:01:22.645Z,858.00
2023-02-25T03:02:22.607Z,806.00
2023-02-25T03:03:22.539Z,783.00
2023-02-25T03:04:22.649Z,752.00
2023-02-25T03:05:22.501Z,738.00
2023-02-25T03:06:22.880Z,689.00
2023-02-25T03:07:22.465Z,670.00
2023-02-25T03:08:22.435Z,654.00
2023-02-25T03:09:22.431Z,661.00
2023-02-25T03:10:22.385Z,669.00
2023-02-25T03:11:22.366Z,658.00
2023-02-25T03:12:22.356Z,648.00
2023-02-25T03:13:22.367Z,634.00
2023-02-25T03:14:22.319Z,626.00
2023-02-25T03:15:22.280Z,616.00
2023-02-25T03:16:22.591Z,610.00
2023-02-25T03:17:22.263Z,600.00
2023-02-25T03:18:22.268Z,598.00
2023-02-25T03:19:22.224Z,588.00
2023-02-25T03:20:22.201Z,590.00
2023-02-25T03:21:22.195Z,586.00
2023-02-25T03:22:22.226Z,579.00
2023-02-25T03:23:22.171Z,584.00
2023-02-25T03:24:22.138Z,568.00
2023-02-25T03:25:22.124Z,568.00
2023-02-25T03:26:22.365Z,569.00
2023-02-25T03:27:22.106Z,573.00
2023-02-25T03:28:22.084Z,573.00
2023-02-25T03:29:22.058Z,559.00
2023-02-25T03:30:22.050Z,557.00
2023-02-25T03:31:22.060Z,544.00
2023-02-25T03:32:22.104Z,534.00
2023-02-25T03:33:22.052Z,532.00
2023-02-25T03:34:22.013Z,539.00
2023-02-25T03:35:22.004Z,526.00
2023-02-25T03:36:22.341Z,522.00
2023-02-25T03:37:21.995Z,519.00
2023-02-25T03:38:21.960Z,517.00
2023-02-25T03:39:21.953Z,517.00
2023-02-25T03:40:21.920Z,522.00
2023-02-25T03:41:21.936Z,517.00
2023-02-25T03:42:21.927Z,514.00
2023-02-25T03:43:21.921Z,514.00
2023-02-25T03:44:21.905Z,509.00
2023-02-25T03:45:21.868Z,508.00
2023-02-25T03:46:22.377Z,515.00
2023-02-25T03:47:21.841Z,510.00
2023-02-25T03:48:21.846Z,509.00
2023-02-25T03:49:21.850Z,510.00
2023-02-25T03:50:21.813Z,516.00
2023-02-25T03:51:21.785Z,510.00
2023-02-25T03:52:21.791Z,507.00
2023-02-25T03:53:21.778Z,507.00
2023-02-25T03:54:21.727Z,513.00
2023-02-25T03:55:21.710Z,517.00
2023-02-25T03:56:22.079Z,518.00
2023-02-25T03:57:21.683Z,520.00
2023-02-25T03:58:21.728Z,511.00
2023-02-25T03:59:21.675Z,510.00
2023-02-25T04:00:21.649Z,510.00
2023-02-25T04:01:21.662Z,523.00
2023-02-25T04:02:21.657Z,525.00
2023-02-25T04:03:21.641Z,520.00
2023-02-25T04:04:21.662Z,521.00
2023-02-25T04:05:21.601Z,512.00
2023-02-25T04:06:21.867Z,519.00
2023-02-25T04:07:21.570Z,515.00
2023-02-25T04:08:21.576Z,523.00
2023-02-25T04:09:21.586Z,509.00
2023-02-25T04:10:21.546Z,506.00
2023-02-25T04:11:21.511Z,501.00
2023-02-25T04:12:21.506Z,501.00
2023-02-25T04:13:21.506Z,512.00
2023-02-25T04:14:21.497Z,503.00
2023-02-25T04:15:21.481Z,506.00
2023-02-25T04:16:21.794Z,505.00
2023-02-25T04:17:21.451Z,502.00
2023-02-25T04:18:21.433Z,503.00
2023-02-25T04:19:21.443Z,508.00
2023-02-25T04:20:21.397Z,511.00
2023-02-25T04:21:21.395Z,510.00
2023-02-25T04:22:21.424Z,508.00
2023-02-25T04:23:21.410Z,507.00
2023-02-25T04:24:21.387Z,513.00
2023-02-25T04:25:21.377Z,514.00
2023-02-25T04:26:21.550Z,523.00
2023-02-25T04:27:21.350Z,527.00
2023-02-25T04:28:21.307Z,520.00
2023-02-25T04:29:21.332Z,515.00
2023-02-25T04:30:21.335Z,513.00
2023-02-25T04:31:21.437Z,502.00
2023-02-25T04:32:21.388Z,510.00
2023-02-25T04:33:21.314Z,512.00
2023-02-25T04:34:21.282Z,514.00
2023-02-25T04:35:21.279Z,507.00
2023-02-25T04:36:21.492Z,510.00
2023-02-25T04:37:21.248Z,515.00
2023-02-25T04:38:21.215Z,512.00
2023-02-25T04:39:21.195Z,514.00
2023-02-25T04:40:21.173Z,511.00
2023-02-25T04:41:21.140Z,512.00
2023-02-25T04:42:21.148Z,503.00
2023-02-25T04:43:21.120Z,532.00
2023-02-25T04:44:21.158Z,525.00
2023-02-25T04:45:21.066Z,511.00
2023-02-25T04:46:21.572Z,508.00
2023-02-25T04:47:21.033Z,508.00
2023-02-25T04:48:21.033Z,510.00
2023-02-25T04:49:20.998Z,514.00
2023-02-25T04:50:21.032Z,517.00
2023-02-25T04:51:20.959Z,534.00
2023-02-25T04:52:20.946Z,531.00
2023-02-25T04:53:20.938Z,535.00
2023-02-25T04:54:20.910Z,523.00
2023-02-25T04:55:20.915Z,518.00
2023-02-25T04:56:21.010Z,518.00
2023-02-25T04:57:20.858Z,513.00
2023-02-25T04:58:20.871Z,528.00
2023-02-25T04:59:20.851Z,527.00
2023-02-25T05:00:20.828Z,528.00
2023-02-25T05:01:20.865Z,531.00
2023-02-25T05:02:20.813Z,519.00
2023-02-25T05:03:20.819Z,512.00
2023-02-25T05:04:20.774Z,501.00
2023-02-25T05:05:20.764Z,500.00
2023-02-25T05:06:20.866Z,509.00
2023-02-25T05:07:20.734Z,509.00
2023-02-25T05:08:20.715Z,510.00
2023-02-25T05:09:20.693Z,506.00
2023-02-25T05:10:20.699Z,514.00
2023-02-25T05:11:20.670Z,515.00
2023-02-25T05:12:20.657Z,500.00
2023-02-25T05:13:20.631Z,505.00
2023-02-25T05:14:20.632Z,521.00
2023-02-25T05:15:20.603Z,503.00
2023-02-25T05:16:20.689Z,519.00
2023-02-25T05:17:20.565Z,508.00
2023-02-25T05:18:20.613Z,512.00
2023-02-25T05:19:20.554Z,526.00
2023-02-25T05:20:20.583Z,513.00
2023-02-25T05:21:20.528Z,519.00
2023-02-25T05:22:20.526Z,518.00
2023-02-25T05:23:20.526Z,525.00
2023-02-25T05:24:20.516Z,527.00
2023-02-25T05:25:20.494Z,540.00
2023-02-25T05:26:20.758Z,536.00
2023-02-25T05:27:20.460Z,532.00
2023-02-25T05:28:20.439Z,543.00
2023-02-25T05:29:20.436Z,536.00
2023-02-25T05:30:20.429Z,543.00
2023-02-25T05:31:20.529Z,549.00
2023-02-25T05:32:20.553Z,550.00
2023-02-25T05:33:20.379Z,561.00
2023-02-25T05:34:20.379Z,570.00
2023-02-25T05:35:20.390Z,569.00
2023-02-25T05:36:20.426Z,575.00
2023-02-25T05:37:20.318Z,568.00
2023-02-25T05:38:20.308Z,575.00
2023-02-25T05:39:20.276Z,582.00
2023-02-25T05:40:20.284Z,586.00
2023-02-25T05:41:20.277Z,588.00
2023-02-25T05:42:20.250Z,587.00
2023-02-25T05:43:20.266Z,582.00
2023-02-25T05:44:20.232Z,590.00
2023-02-25T05:45:20.232Z,592.00
2023-02-25T05:46:20.298Z,593.00
2023-02-25T05:47:20.193Z,606.00
2023-02-25T05:48:20.194Z,606.00
2023-02-25T05:49:20.192Z,620.00
2023-02-25T05:50:20.186Z,634.00
2023-02-25T05:51:20.142Z,640.00
2023-02-25T05:52:20.152Z,646.00
2023-02-25T05:53:20.114Z,663.00
2023-02-25T05:54:20.112Z,661.00
2023-02-25T05:55:20.118Z,671.00
2023-02-25T05:56:20.073Z,683.00
2023-02-25T05:57:20.082Z,691.00
2023-02-25T05:58:20.056Z,682.00
2023-02-25T05:59:20.042Z,682.00
2023-02-25T06:00:20.013Z,708.00
2023-02-25T06:01:20.020Z,701.00
2023-02-25T06:02:20.074Z,692.00
2023-02-25T06:03:20.035Z,697.00
2023-02-25T06:04:19.959Z,723.00
2023-02-25T06:05:19.951Z,713.00
2023-02-25T06:06:19.954Z,709.00
2023-02-25T06:07:19.925Z,710.00
2023-02-25T06:08:19.939Z,698.00
2023-02-25T06:09:19.904Z,706.00
2023-02-25T06:10:19.896Z,705.00
2023-02-25T06:11:19.906Z,696.00
2023-02-25T06:12:19.869Z,726.00
2023-02-25T06:13:19.858Z,743.00
2023-02-25T06:14:19.884Z,785.00
2023-02-25T06:15:19.844Z,803.00
2023-02-25T06:16:19.895Z,804.00
2023-02-25T06:17:19.806Z,799.00
2023-02-25T06:18:19.785Z,793.00
2023-02-25T06:19:19.782Z,795.00
2023-02-25T06:20:19.776Z,827.00
2023-02-25T06:21:19.808Z,848.00
2023-02-25T06:22:19.769Z,859.00
2023-02-25T06:23:19.745Z,876.00
2023-02-25T06:24:19.736Z,912.00
2023-02-25T06:25:19.731Z,907.00
2023-02-25T06:26:19.726Z,920.00
2023-02-25T06:27:19.673Z,939.00
2023-02-25T06:28:19.656Z,934.00
2023-02-25T06:29:19.673Z,949.00
2023-02-25T06:30:19.635Z,943.00
2023-02-25T06:31:19.722Z,927.00
2023-02-25T06:32:19.767Z,924.00
2023-02-25T06:33:19.560Z,950.00
2023-02-25T06:34:19.543Z,940.00
2023-02-25T06:35:19.539Z,936.00
2023-02-25T06:36:19.531Z,933.00
2023-02-25T06:37:19.502Z,892.00
2023-02-25T06:38:19.468Z,839.00
2023-02-25T06:39:19.491Z,843.00
2023-02-25T06:40:19.448Z,813.00
2023-02-25T06:41:19.454Z,785.00
2023-02-25T06:42:19.442Z,734.00
2023-02-25T06:43:19.436Z,707.00
2023-02-25T06:44:19.395Z,721.00
2023-02-25T06:45:19.368Z,722.00
2023-02-25T06:46:19.407Z,692.00
2023-02-25T06:47:19.346Z,658.00
2023-02-25T06:48:19.326Z,663.00
2023-02-25T06:49:19.319Z,671.00
2023-02-25T06:50:19.337Z,667.00
2023-02-25T06:51:19.286Z,667.00
2023-02-25T06:52:19.290Z,669.00
2023-02-25T06:53:19.254Z,666.00
2023-02-25T06:54:19.237Z,659.00
2023-02-25T06:55:19.217Z,663.00
2023-02-25T06:56:19.208Z,647.00
2023-02-25T06:57:19.187Z,623.00
2023-02-25T06:58:19.151Z,627.00
2023-02-25T06:59:19.161Z,621.00
2023-02-25T07:00:19.111Z,617.00
2023-02-25T07:01:19.172Z,616.00
2023-02-25T07:02:19.104Z,616.00
2023-02-25T07:03:19.089Z,605.00
2023-02-25T07:04:19.081Z,614.00
2023-02-25T07:05:19.041Z,611.00
2023-02-25T07:06:19.019Z,604.00
2023-02-25T07:07:19.037Z,608.00
2023-02-25T07:08:18.992Z,607.00
2023-02-25T07:09:18.968Z,611.00
2023-02-25T07:10:18.962Z,611.00
2023-02-25T07:11:18.926Z,589.00
2023-02-25T07:12:18.918Z,595.00
2023-02-25T07:13:18.886Z,592.00
2023-02-25T07:14:18.869Z,592.00
2023-02-25T07:15:18.841Z,585.00
2023-02-25T07:16:18.994Z,587.00
2023-02-25T07:17:18.813Z,589.00
2023-02-25T07:18:18.800Z,581.00
2023-02-25T07:19:18.767Z,582.00
2023-02-25T07:20:18.760Z,584.00
2023-02-25T07:21:18.758Z,578.00
2023-02-25T07:22:18.746Z,575.00
2023-02-25T07:23:18.720Z,577.00
2023-02-25T07:24:18.704Z,565.00
2023-02-25T07:25:18.745Z,555.00
2023-02-25T07:26:18.671Z,558.00
2023-02-25T07:27:18.674Z,563.00
2023-02-25T07:28:18.626Z,555.00
2023-02-25T07:29:18.614Z,555.00
2023-02-25T07:30:18.586Z,561.00
2023-02-25T07:31:18.781Z,557.00
2023-02-25T07:32:18.820Z,552.00
2023-02-25T07:33:18.562Z,549.00
2023-02-25T07:34:18.529Z,549.00
2023-02-25T07:35:18.533Z,557.00
2023-02-25T07:36:18.496Z,552.00
2023-02-25T07:37:18.474Z,550.00
2023-02-25T07:38:18.473Z,565.00
2023-02-25T07:39:18.460Z,572.00
2023-02-25T07:40:18.438Z,574.00
2023-02-25T07:41:18.442Z,575.00
2023-02-25T07:42:18.404Z,574.00
2023-02-25T07:43:18.429Z,565.00
2023-02-25T07:44:18.401Z,566.00
2023-02-25T07:45:18.378Z,563.00
2023-02-25T07:46:18.412Z,557.00
2023-02-25T07:47:18.350Z,548.00
2023-02-25T07:48:18.385Z,548.00
2023-02-25T07:49:18.316Z,544.00
2023-02-25T07:50:18.323Z,547.00
2023-02-25T07:51:18.312Z,554.00
2023-02-25T07:52:18.281Z,563.00
2023-02-25T07:53:18.281Z,579.00
2023-02-25T07:54:18.256Z,597.00
2023-02-25T07:55:18.254Z,608.00
2023-02-25T07:56:18.236Z,627.00
2023-02-25T07:57:18.209Z,641.00
2023-02-25T07:58:18.249Z,651.00
2023-02-25T07:59:18.222Z,662.00
2023-02-25T08:00:18.193Z,667.00
2023-02-25T08:01:18.202Z,676.00
2023-02-25T08:02:18.159Z,705.00
2023-02-25T08:03:18.165Z,735.00
2023-02-25T08:04:18.190Z,754.00
2023-02-25T08:05:18.121Z,783.00
2023-02-25T08:06:18.127Z,798.00
2023-02-25T08:07:18.098Z,818.00
2023-02-25T08:08:18.148Z,820.00
2023-02-25T08:09:18.105Z,811.00
2023-02-25T08:10:18.091Z,818.00
2023-02-25T08:11:18.086Z,834.00
2023-02-25T08:12:18.062Z,837.00
2023-02-25T08:13:18.087Z,852.00
2023-02-25T08:14:18.058Z,864.00
2023-02-25T08:15:18.068Z,877.00
2023-02-25T08:16:18.144Z,895.00
2023-02-25T08:17:18.024Z,913.00
2023-02-25T08:18:18.067Z,913.00
2023-02-25T08:19:18.014Z,914.00
2023-02-25T08:20:18.012Z,930.00
2023-02-25T08:21:18.095Z,934.00
2023-02-25T08:22:17.991Z,955.00
2023-02-25T08:23:17.992Z,945.00
2023-02-25T08:24:17.953Z,963.00
2023-02-25T08:25:17.960Z,972.00
2023-02-25T08:26:17.959Z,972.00
2023-02-25T08:27:17.933Z,974.00
2023-02-25T08:28:17.913Z,971.00
2023-02-25T08:29:17.922Z,967.00
2023-02-25T08:30:17.890Z,972.00
2023-02-25T08:31:18.005Z,970.00
2023-02-25T08:32:17.968Z,959.00
2023-02-25T08:33:17.831Z,960.00
2023-02-25T08:34:17.832Z,949.00
2023-02-25T08:35:17.814Z,949.00
2023-02-25T08:36:17.818Z,936.00
2023-02-25T08:37:17.766Z,942.00
2023-02-25T08:38:17.770Z,928.00
2023-02-25T08:39:17.739Z,908.00
2023-02-25T08:40:19.877Z,898.00
2023-02-25T08:41:17.708Z,906.00
2023-02-25T08:42:17.683Z,941.00
2023-02-25T08:43:17.676Z,975.00
2023-02-25T08:44:17.679Z,1031.00
2023-02-25T08:45:17.654Z,1095.00
2023-02-25T08:46:19.933Z,1138.00
2023-02-25T08:47:17.610Z,1179.00
2023-02-25T08:48:17.612Z,1220.00
2023-02-25T08:49:17.593Z,1235.00
2023-02-25T08:50:17.581Z,1265.00
2023-02-25T08:51:17.544Z,1330.00
2023-02-25T08:52:17.518Z,1370.00
2023-02-25T08:53:17.512Z,1408.00
2023-02-25T08:54:17.515Z,1435.00
2023-02-25T08:55:17.484Z,1437.00
2023-02-25T08:56:17.481Z,1468.00
2023-02-25T08:57:17.464Z,1492.00
2023-02-25T08:58:17.448Z,1488.00
2023-02-25T08:59:17.466Z,1530.00
2023-02-25T09:00:17.435Z,1534.00
2023-02-25T09:01:17.465Z,1534.00
2023-02-25T09:02:17.386Z,1563.00
2023-02-25T09:03:17.399Z,1568.00
2023-02-25T09:04:17.441Z,1583.00
2023-02-25T09:05:19.599Z,1604.00
2023-02-25T09:06:17.323Z,1606.00
2023-02-25T09:07:17.344Z,1613.00
2023-02-25T09:08:17.294Z,1624.00
2023-02-25T09:09:17.312Z,1660.00
2023-02-25T09:10:17.255Z,1706.00
2023-02-25T09:11:17.272Z,1715.00
2023-02-25T09:12:17.214Z,1738.00
2023-02-25T09:13:17.225Z,1761.00
2023-02-25T09:14:17.228Z,1767.00
2023-02-25T09:15:17.162Z,1794.00
2023-02-25T09:16:19.861Z,1802.00
2023-02-25T09:17:17.132Z,1803.00
2023-02-25T09:18:17.112Z,1808.00
2023-02-25T09:19:17.109Z,1819.00
2023-02-25T09:20:17.108Z,1835.00
2023-02-25T09:21:17.076Z,1885.00
2023-02-25T09:22:17.066Z,1897.00
2023-02-25T09:23:17.035Z,1897.00
2023-02-25T09:24:17.005Z,1911.00
2023-02-25T09:25:17.004Z,1922.00
2023-02-25T09:26:16.987Z,1934.00
2023-02-25T09:27:16.950Z,1942.00
2023-02-25T09:28:16.924Z,1952.00
2023-02-25T09:29:16.911Z,1968.00
2023-02-25T09:30:16.921Z,1962.00
2023-02-25T09:31:17.019Z,1981.00
2023-02-25T09:32:16.972Z,1972.00
2023-02-25T09:33:16.845Z,2000.00
2023-02-25T09:34:16.849Z,1991.00
2023-02-25T09:35:16.845Z,2010.00
2023-02-25T09:36:16.797Z,2006.00
2023-02-25T09:37:16.763Z,2023.00
2023-02-25T09:38:16.772Z,2035.00
2023-02-25T09:39:16.734Z,2021.00
2023-02-25T09:40:16.720Z,2027.00
2023-02-25T09:41:16.689Z,2039.00
2023-02-25T09:42:16.666Z,2043.00
2023-02-25T09:43:16.643Z,2053.00
2023-02-25T09:44:16.638Z,2067.00
2023-02-25T09:45:16.630Z,2064.00
2023-02-25T09:46:16.651Z,2080.00
2023-02-25T09:47:16.612Z,2078.00
2023-02-25T09:48:16.567Z,2081.00
2023-02-25T09:49:16.545Z,2084.00
2023-02-25T09:50:16.539Z,2092.00
2023-02-25T09:51:16.492Z,2097.00
2023-02-25T09:52:16.474Z,2106.00
2023-02-25T09:53:16.457Z,2097.00
2023-02-25T09:54:16.424Z,2103.00
2023-02-25T09:55:16.419Z,2091.00
2023-02-25T09:56:16.381Z,2111.00
2023-02-25T09:57:16.369Z,2108.00
2023-02-25T09:58:16.358Z,2121.00
2023-02-25T09:59:16.343Z,2126.00
2023-02-25T10:00:16.333Z,2121.00
2023-02-25T10:01:16.297Z,2133.00
2023-02-25T10:02:16.425Z,2129.00
2023-02-25T10:03:16.335Z,2129.00
2023-02-25T10:04:16.217Z,2130.00
2023-02-25T10:05:16.239Z,2145.00
2023-02-25T10:06:16.193Z,2134.00
2023-02-25T10:07:16.191Z,2152.00
2023-02-25T10:08:16.151Z,2144.00
2023-02-25T10:09:16.149Z,2143.00
2023-02-25T10:10:16.127Z,2160.00
2023-02-25T10:11:16.144Z,2144.00
2023-02-25T10:12:16.091Z,2140.00
2023-02-25T10:13:16.111Z,2160.00
2023-02-25T10:14:16.050Z,2145.00
2023-02-25T10:15:16.044Z,2161.00
2023-02-25T10:16:16.086Z,2160.00
2023-02-25T10:17:15.990Z,2170.00
2023-02-25T10:18:15.960Z,2174.00
2023-02-25T10:19:15.962Z,2184.00
2023-02-25T10:20:15.920Z,2176.00
2023-02-25T10:21:15.927Z,2182.00
2023-02-25T10:22:15.885Z,2173.00
2023-02-25T10:23:15.845Z,2178.00
2023-02-25T10:24:15.830Z,2172.00
2023-02-25T10:25:15.809Z,2180.00
2023-02-25T10:26:15.804Z,2174.00
2023-02-25T10:27:15.783Z,2182.00
2023-02-25T10:29:15.748Z,2179.00
2023-02-25T11:56:13.695Z,2193.00
2023-02-25T11:57:13.709Z,2189.00
2023-02-25T11:58:13.677Z,2203.00
2023-02-25T11:59:13.635Z,2203.00
2023-02-25T12:00:13.628Z,2217.00
2023-02-25T12:01:13.592Z,2187.00
2023-02-25T12:02:13.600Z,2192.00
2023-02-25T12:03:13.535Z,2173.00
2023-02-25T12:04:13.524Z,2197.00
2023-02-25T12:05:13.505Z,2187.00
2023-02-25T12:06:13.488Z,2182.00
2023-02-25T12:07:13.500Z,2173.00
2023-02-25T12:08:14.377Z,2184.00
2023-02-25T12:09:13.443Z,2181.00
2023-02-25T12:10:13.401Z,2177.00
2023-02-25T12:11:13.394Z,2163.00
2023-02-25T12:12:13.414Z,2162.00
2023-02-25T12:13:13.352Z,2186.00
2023-02-25T12:14:13.324Z,2145.00
2023-02-25T12:15:13.322Z,2183.00
2023-02-25T12:16:13.339Z,2157.00
2023-02-25T12:17:13.273Z,2158.00
2023-02-25T12:18:13.249Z,2164.00
2023-02-25T12:19:13.238Z,2169.00
2023-02-25T12:20:13.232Z,2176.00
2023-02-25T12:21:13.192Z,2165.00
2023-02-25T12:22:13.208Z,2164.00
2023-02-25T12:23:13.172Z,2177.00
2023-02-25T12:24:13.151Z,2176.00
2023-02-25T12:25:13.112Z,2193.00
2023-02-25T12:26:13.129Z,2149.00
2023-02-25T12:27:13.085Z,2183.00
2023-02-25T12:28:13.054Z,2206.00
2023-02-25T12:29:13.047Z,2166.00
2023-02-25T12:30:13.015Z,2187.00
2023-02-25T12:31:13.058Z,2169.00
2023-02-25T12:32:13.019Z,2151.00
2023-02-25T12:33:12.965Z,2191.00
2023-02-25T12:34:12.946Z,2180.00
2023-02-25T12:35:12.904Z,2142.00
2023-02-25T12:36:12.894Z,2143.00
2023-02-25T12:37:12.851Z,2143.00
2023-02-25T12:38:12.847Z,2137.00
2023-02-25T12:39:12.812Z,2143.00
2023-02-25T12:40:12.771Z,2155.00
2023-02-25T12:41:12.760Z,2141.00
2023-02-25T12:42:12.720Z,2117.00
2023-02-25T12:43:12.729Z,2164.00
2023-02-25T12:44:12.692Z,2141.00
2023-02-25T12:45:12.647Z,2129.00
2023-02-25T12:46:12.660Z,2123.00
2023-02-25T12:47:12.591Z,2140.00
2023-02-25T12:48:12.574Z,2115.00
2023-02-25T12:49:12.537Z,2189.00
2023-02-25T12:50:12.523Z,2125.00
2023-02-25T12:51:12.503Z,2114.00
2023-02-25T12:52:12.472Z,2124.00
2023-02-25T12:53:12.477Z,2151.00
2023-02-25T12:54:12.424Z,2116.00
2023-02-25T12:55:12.385Z,2130.00
2023-02-25T12:56:12.359Z,2117.00
2023-02-25T12:57:12.335Z,2115.00
2023-02-25T12:58:12.321Z,2141.00
2023-02-25T12:59:12.278Z,2151.00
2023-02-25T13:00:12.250Z,2102.00
2023-02-25T13:01:12.260Z,2088.00
2023-02-25T13:02:12.167Z,2114.00
2023-02-25T13:03:12.158Z,2097.00
2023-02-25T13:04:12.185Z,2122.00
2023-02-25T13:05:12.078Z,2112.00
2023-02-25T13:06:12.044Z,2092.00
2023-02-25T13:07:12.025Z,2114.00
2023-02-25T13:08:12.020Z,2127.00
2023-02-25T13:09:11.977Z,2096.00
2023-02-25T13:10:11.916Z,2100.00
2023-02-25T13:11:11.871Z,2077.00
2023-02-25T13:12:12.614Z,2100.00
2023-02-25T13:13:11.824Z,2124.00
2023-02-25T13:14:11.791Z,2095.00
2023-02-25T13:15:11.732Z,2066.00
2023-02-25T13:16:11.727Z,2072.00
2023-02-25T13:17:11.671Z,2088.00
2023-02-25T13:18:11.671Z,2105.00
2023-02-25T13:19:11.627Z,2092.00
2023-02-25T13:20:11.604Z,2104.00
2023-02-25T13:21:12.054Z,2113.00
2023-02-25T13:22:11.536Z,2073.00
2023-02-25T13:23:11.496Z,2093.00
2023-02-25T13:24:11.506Z,2105.00
2023-02-25T13:25:11.426Z,2095.00
2023-02-25T13:26:11.419Z,2081.00
2023-02-25T13:27:11.390Z,2068.00
2023-02-25T13:28:11.348Z,2095.00
2023-02-25T13:29:11.360Z,2079.00
2023-02-25T13:30:11.429Z,2044.00
2023-02-25T13:31:11.285Z,2088.00
2023-02-25T13:32:11.377Z,2104.00
2023-02-25T13:33:11.251Z,2081.00
2023-02-25T13:34:11.259Z,2071.00
2023-02-25T13:35:11.190Z,2055.00
2023-02-25T13:36:11.184Z,2060.00
2023-02-25T13:37:11.146Z,2096.00
2023-02-25T13:38:11.106Z,2080.00
2023-02-25T13:39:11.113Z,2066.00
2023-02-25T13:40:11.155Z,2060.00
2023-02-25T13:41:11.064Z,2017.00
2023-02-25T13:42:11.045Z,2062.00
2023-02-25T13:43:11.027Z,2059.00